createdAt,value
2023-05-09T00:00:08.659Z,37.50
2023-05-09T00:01:07.978Z,37.49
2023-05-09T00:02:08.079Z,37.48
2023-05-09T00:03:08.188Z,37.44
2023-05-09T00:04:08.060Z,37.50
2023-05-09T00:05:08.058Z,37.49
2023-05-09T00:06:08.053Z,37.50
2023-05-09T00:07:08.063Z,37.45
2023-05-09T00:08:08.064Z,37.45
2023-05-09T00:09:08.085Z,37.47
2023-05-09T00:10:08.044Z,37.47
2023-05-09T00:11:08.076Z,37.47
2023-05-09T00:12:08.088Z,37.43
2023-05-09T00:13:08.201Z,37.46
2023-05-09T00:14:08.104Z,37.38
2023-05-09T00:15:08.248Z,37.45
2023-05-09T00:16:08.132Z,37.44
2023-05-09T00:17:08.121Z,37.39
2023-05-09T00:18:08.134Z,37.43
2023-05-09T00:19:08.155Z,37.38
2023-05-09T00:20:08.096Z,37.39
2023-05-09T00:21:08.108Z,37.38
2023-05-09T00:22:08.119Z,37.44
2023-05-09T00:23:08.149Z,37.43
2023-05-09T00:24:08.133Z,37.39
2023-05-09T00:25:08.181Z,37.35
2023-05-09T00:26:08.156Z,37.36
2023-05-09T00:27:08.196Z,37.34
2023-05-09T00:28:08.188Z,37.40
2023-05-09T00:29:08.211Z,37.41
2023-05-09T00:30:08.193Z,37.38
2023-05-09T00:31:08.306Z,37.34
2023-05-09T00:32:08.720Z,37.33
2023-05-09T00:33:08.317Z,37.39
2023-05-09T00:34:08.237Z,37.32
2023-05-09T00:35:08.257Z,37.30
2023-05-09T00:36:08.253Z,37.36
2023-05-09T00:37:08.269Z,37.35
2023-05-09T00:38:08.283Z,37.34
2023-05-09T00:39:08.275Z,37.34
2023-05-09T00:40:08.293Z,37.33
2023-05-09T00:41:08.303Z,37.32
2023-05-09T00:42:08.705Z,37.34
2023-05-09T00:43:08.295Z,37.37
2023-05-09T00:44:08.342Z,37.36
2023-05-09T00:45:08.324Z,37.30
2023-05-09T00:46:08.354Z,37.29
2023-05-09T00:47:08.433Z,37.29
2023-05-09T00:48:08.386Z,37.27
2023-05-09T00:49:08.358Z,37.30
2023-05-09T00:50:08.350Z,37.29
2023-05-09T00:51:08.358Z,37.27
2023-05-09T00:52:08.683Z,37.24
2023-05-09T00:53:08.397Z,37.25
2023-05-09T00:54:09.275Z,37.31
2023-05-09T00:55:08.430Z,37.31
2023-05-09T00:56:08.399Z,37.28
2023-05-09T00:57:08.428Z,37.29
2023-05-09T00:58:08.463Z,37.24
2023-05-09T00:59:08.463Z,37.23
2023-05-09T01:00:08.477Z,37.17
2023-05-09T01:01:08.505Z,37.24
2023-05-09T01:02:08.493Z,37.24
2023-05-09T01:03:08.787Z,37.20
2023-05-09T01:04:08.516Z,37.22
2023-05-09T01:05:08.526Z,37.22
2023-05-09T01:06:08.520Z,37.25
2023-05-09T01:07:08.560Z,37.23
2023-05-09T01:08:08.588Z,37.19
2023-05-09T01:09:08.566Z,37.22
2023-05-09T01:10:08.627Z,37.19
2023-05-09T01:11:08.618Z,37.18
2023-05-09T01:12:08.677Z,37.20
2023-05-09T01:13:08.661Z,37.21
2023-05-09T01:14:08.666Z,37.20
2023-05-09T01:15:08.670Z,37.19
2023-05-09T01:16:08.788Z,37.20
2023-05-09T01:17:08.689Z,37.16
2023-05-09T01:18:08.739Z,37.17
2023-05-09T01:19:08.813Z,37.17
2023-05-09T01:20:08.761Z,37.16
2023-05-09T01:21:08.770Z,37.16
2023-05-09T01:22:08.818Z,37.19
2023-05-09T01:23:08.791Z,37.16
2023-05-09T01:24:08.825Z,37.18
2023-05-09T01:25:08.804Z,37.18
2023-05-09T01:26:08.856Z,37.16
2023-05-09T01:27:08.863Z,37.18
2023-05-09T01:28:08.857Z,37.14
2023-05-09T01:29:08.853Z,37.18
2023-05-09T01:30:08.896Z,37.16
2023-05-09T01:31:08.966Z,37.12
2023-05-09T01:32:08.918Z,37.10
2023-05-09T01:33:08.987Z,37.13
2023-05-09T01:34:08.942Z,37.11
2023-05-09T01:35:09.051Z,37.11
2023-05-09T01:36:08.974Z,37.12
2023-05-09T01:37:08.965Z,37.07
2023-05-09T01:38:08.995Z,37.10
2023-05-09T01:39:09.019Z,37.04
2023-05-09T01:40:09.054Z,37.11
2023-05-09T01:41:09.066Z,37.11
2023-05-09T01:42:09.077Z,37.08
2023-05-09T01:43:09.056Z,37.07
2023-05-09T01:44:09.170Z,37.04
2023-05-09T01:45:09.136Z,37.04
2023-05-09T01:46:09.213Z,37.07
2023-05-09T01:47:09.165Z,37.06
2023-05-09T01:48:09.256Z,37.10
2023-05-09T01:49:09.199Z,37.07
2023-05-09T01:50:09.192Z,37.05
2023-05-09T01:51:09.313Z,37.04
2023-05-09T01:52:09.228Z,37.05
2023-05-09T01:53:09.244Z,37.05
2023-05-09T01:54:09.281Z,37.05
2023-05-09T01:55:09.291Z,37.03
2023-05-09T01:56:09.317Z,37.03
2023-05-09T01:57:09.297Z,36.96
2023-05-09T01:58:09.298Z,37.00
2023-05-09T01:59:09.329Z,37.05
2023-05-09T02:00:09.373Z,37.03
2023-05-09T02:01:09.378Z,37.01
2023-05-09T02:02:09.766Z,37.00
2023-05-09T02:03:09.440Z,37.00
2023-05-09T02:04:09.395Z,37.02
2023-05-09T02:05:09.428Z,37.00
2023-05-09T02:06:09.424Z,36.98
2023-05-09T02:07:09.555Z,37.01
2023-05-09T02:08:09.455Z,37.01
2023-05-09T02:09:09.481Z,37.01
2023-05-09T02:10:09.548Z,37.02
2023-05-09T02:11:09.504Z,37.03
2023-05-09T02:12:09.553Z,37.02
2023-05-09T02:13:09.606Z,36.98
2023-05-09T02:14:09.563Z,36.94
2023-05-09T02:15:09.578Z,36.95
2023-05-09T02:16:09.661Z,36.98
2023-05-09T02:17:09.599Z,36.95
2023-05-09T02:18:09.621Z,37.03
2023-05-09T02:19:09.652Z,37.00
2023-05-09T02:20:09.670Z,37.01
2023-05-09T02:21:09.727Z,36.99
2023-05-09T02:22:09.721Z,36.94
2023-05-09T02:23:09.803Z,36.92
2023-05-09T02:24:09.750Z,36.96
2023-05-09T02:25:09.779Z,36.98
2023-05-09T02:26:09.837Z,36.92
2023-05-09T02:27:09.790Z,36.91
2023-05-09T02:28:09.802Z,36.92
2023-05-09T02:29:09.800Z,36.91
2023-05-09T02:30:09.857Z,36.92
2023-05-09T02:31:09.848Z,36.96
2023-05-09T02:32:09.898Z,36.92
2023-05-09T02:33:09.992Z,36.94
2023-05-09T02:34:09.927Z,36.96
2023-05-09T02:35:09.936Z,36.90
2023-05-09T02:36:09.971Z,36.90
2023-05-09T02:37:10.035Z,36.89
2023-05-09T02:38:10.006Z,36.91
2023-05-09T02:39:10.119Z,36.90
2023-05-09T02:40:10.056Z,36.86
2023-05-09T02:41:10.070Z,36.90
2023-05-09T02:42:10.272Z,36.87
2023-05-09T02:43:10.118Z,36.89
2023-05-09T02:44:10.122Z,36.89
2023-05-09T02:45:10.722Z,36.90
2023-05-09T02:46:10.216Z,36.87
2023-05-09T02:47:10.210Z,36.85
2023-05-09T02:48:10.265Z,36.83
2023-05-09T02:49:12.950Z,36.83
2023-05-09T02:50:11.251Z,36.84
2023-05-09T02:51:10.247Z,36.87
2023-05-09T02:52:10.236Z,36.87
2023-05-09T02:53:10.202Z,36.85
2023-05-09T02:54:10.199Z,36.85
2023-05-09T02:55:10.264Z,36.81
2023-05-09T02:56:10.180Z,36.83
2023-05-09T02:57:10.235Z,36.86
2023-05-09T02:58:14.788Z,36.81
2023-05-09T02:59:11.208Z,36.85
2023-05-09T03:00:10.169Z,36.86
2023-05-09T03:01:10.192Z,36.81
2023-05-09T03:02:10.116Z,36.81
2023-05-09T03:03:10.209Z,36.85
2023-05-09T03:04:10.123Z,36.81
2023-05-09T03:05:10.117Z,36.75
2023-05-09T03:06:10.121Z,36.80
2023-05-09T03:07:10.143Z,36.80
2023-05-09T03:08:10.105Z,36.81
2023-05-09T03:09:10.074Z,36.79
2023-05-09T03:10:10.115Z,36.84
2023-05-09T03:11:10.151Z,36.83
2023-05-09T03:12:10.075Z,36.86
2023-05-09T03:13:10.117Z,36.80
2023-05-09T03:14:10.054Z,36.79
2023-05-09T03:15:10.050Z,36.77
2023-05-09T03:16:10.060Z,36.75
2023-05-09T03:17:10.252Z,36.83
2023-05-09T03:18:10.088Z,36.78
2023-05-09T03:19:10.035Z,36.81
2023-05-09T03:20:10.025Z,36.79
2023-05-09T03:21:10.032Z,36.80
2023-05-09T03:22:10.021Z,36.83
2023-05-09T03:23:10.033Z,36.78
2023-05-09T03:24:09.975Z,36.74
2023-05-09T03:25:09.995Z,36.77
2023-05-09T03:26:10.032Z,36.71
2023-05-09T03:27:10.329Z,36.79
2023-05-09T03:28:10.047Z,36.79
2023-05-09T03:29:10.048Z,36.82
2023-05-09T03:30:10.085Z,36.78
2023-05-09T03:31:10.129Z,36.77
2023-05-09T03:32:10.114Z,36.80
2023-05-09T03:33:10.212Z,36.75
2023-05-09T03:34:10.122Z,36.75
2023-05-09T03:35:10.135Z,36.74
2023-05-09T03:36:10.166Z,36.74
2023-05-09T03:37:10.172Z,36.76
2023-05-09T03:38:10.166Z,36.75
2023-05-09T03:39:10.200Z,36.73
2023-05-09T03:40:10.207Z,36.71
2023-05-09T03:41:10.218Z,36.71
2023-05-09T03:42:10.255Z,36.71
2023-05-09T03:43:10.357Z,36.70
2023-05-09T03:44:10.295Z,36.71
2023-05-09T03:45:10.326Z,36.74
2023-05-09T03:46:10.338Z,36.73
2023-05-09T03:47:10.746Z,36.68
2023-05-09T03:48:10.359Z,36.74
2023-05-09T03:49:10.394Z,36.70
2023-05-09T03:50:10.382Z,36.74
2023-05-09T03:51:10.377Z,36.68
2023-05-09T03:52:10.733Z,36.68
2023-05-09T03:53:10.432Z,36.71
2023-05-09T03:54:10.426Z,36.71
2023-05-09T03:55:10.447Z,36.69
2023-05-09T03:56:10.434Z,36.65
2023-05-09T03:57:10.773Z,36.70
2023-05-09T03:58:10.495Z,36.64
2023-05-09T03:59:10.581Z,36.67
2023-05-09T04:00:10.504Z,36.67
2023-05-09T04:01:10.547Z,36.66
2023-05-09T04:02:10.564Z,36.69
2023-05-09T04:03:10.671Z,36.62
2023-05-09T04:04:10.662Z,36.69
2023-05-09T04:05:10.620Z,36.68
2023-05-09T04:06:10.643Z,36.71
2023-05-09T04:07:10.814Z,36.66
2023-05-09T04:08:10.679Z,36.68
2023-05-09T04:09:10.720Z,36.65
2023-05-09T04:10:10.719Z,36.64
2023-05-09T04:11:10.710Z,36.65
2023-05-09T04:12:10.796Z,36.72
2023-05-09T04:13:10.845Z,36.65
2023-05-09T04:14:10.815Z,36.64
2023-05-09T04:15:10.916Z,36.67
2023-05-09T04:16:10.855Z,36.64
2023-05-09T04:17:10.894Z,36.61
2023-05-09T04:18:10.888Z,36.65
2023-05-09T04:19:10.922Z,36.62
2023-05-09T04:20:10.961Z,36.63
2023-05-09T04:21:10.924Z,36.63
2023-05-09T04:22:10.963Z,36.64
2023-05-09T04:23:11.278Z,36.65
2023-05-09T04:24:11.040Z,36.62
2023-05-09T04:25:11.034Z,36.62
2023-05-09T04:26:11.028Z,36.65
2023-05-09T04:27:11.053Z,36.64
2023-05-09T04:28:11.076Z,36.62
2023-05-09T04:29:11.091Z,36.60
2023-05-09T04:30:11.125Z,36.59
2023-05-09T04:31:11.293Z,36.63
2023-05-09T04:32:11.240Z,36.63
2023-05-09T04:33:11.186Z,36.57
2023-05-09T04:34:11.204Z,36.58
2023-05-09T04:35:11.256Z,36.60
2023-05-09T04:36:11.263Z,36.58
2023-05-09T04:37:11.252Z,36.59
2023-05-09T04:38:11.316Z,36.58
2023-05-09T04:39:11.333Z,36.58
2023-05-09T04:40:11.325Z,36.55
2023-05-09T04:41:11.367Z,36.59
2023-05-09T04:42:11.396Z,36.54
2023-05-09T04:43:11.432Z,36.63
2023-05-09T04:44:11.443Z,36.53
2023-05-09T04:45:11.544Z,36.54
2023-05-09T04:46:11.596Z,36.58
2023-05-09T04:47:11.613Z,36.60
2023-05-09T04:48:11.534Z,36.58
2023-05-09T04:49:11.574Z,36.59
2023-05-09T04:50:11.583Z,36.59
2023-05-09T04:51:11.591Z,36.52
2023-05-09T04:52:11.611Z,36.52
2023-05-09T04:53:11.626Z,36.54
2023-05-09T04:54:11.700Z,36.55
2023-05-09T04:55:12.376Z,36.53
2023-05-09T04:56:11.716Z,36.58
2023-05-09T04:57:18.003Z,36.55
2023-05-09T04:58:12.732Z,36.57
2023-05-09T04:59:11.726Z,36.51
2023-05-09T05:00:11.725Z,36.59
2023-05-09T05:01:11.726Z,36.48
2023-05-09T05:02:11.709Z,36.54
2023-05-09T05:03:11.770Z,36.51
2023-05-09T05:04:11.740Z,36.57
2023-05-09T05:05:12.605Z,36.58
2023-05-09T05:06:11.668Z,36.57
2023-05-09T05:07:11.678Z,36.43
2023-05-09T05:08:11.676Z,36.51
2023-05-09T05:09:11.653Z,36.52
2023-05-09T05:10:11.633Z,36.49
2023-05-09T05:11:11.616Z,36.48
2023-05-09T05:12:12.269Z,36.57
2023-05-09T05:13:11.630Z,36.58
2023-05-09T05:14:11.603Z,36.57
2023-05-09T05:15:11.710Z,36.56
2023-05-09T05:16:11.596Z,36.54
2023-05-09T05:17:11.604Z,36.58
2023-05-09T05:18:11.568Z,36.54
2023-05-09T05:19:11.671Z,36.58
2023-05-09T05:20:11.583Z,36.52
2023-05-09T05:21:11.625Z,36.54
2023-05-09T05:22:11.637Z,36.51
2023-05-09T05:23:11.653Z,36.54
2023-05-09T05:24:11.684Z,36.51
2023-05-09T05:25:11.723Z,36.49
2023-05-09T05:26:11.690Z,36.53
2023-05-09T05:27:11.738Z,36.52
2023-05-09T05:28:11.784Z,36.47
2023-05-09T05:29:11.789Z,36.43
2023-05-09T05:30:11.787Z,36.46
2023-05-09T05:31:11.891Z,36.46
2023-05-09T05:32:11.833Z,36.47
2023-05-09T05:33:11.868Z,36.50
2023-05-09T05:34:11.891Z,36.50
2023-05-09T05:35:12.201Z,36.53
2023-05-09T05:36:11.947Z,36.42
2023-05-09T05:37:11.949Z,36.44
2023-05-09T05:38:11.992Z,36.43
2023-05-09T05:39:11.936Z,36.47
2023-05-09T05:40:11.977Z,36.43
2023-05-09T05:41:11.996Z,36.38
2023-05-09T05:42:11.999Z,36.40
2023-05-09T05:43:12.279Z,36.39
2023-05-09T05:44:12.027Z,36.43
2023-05-09T05:45:12.261Z,36.34
2023-05-09T05:46:12.119Z,36.36
2023-05-09T05:47:12.069Z,36.31
2023-05-09T05:48:12.146Z,36.32
2023-05-09T05:49:12.116Z,36.33
2023-05-09T05:50:12.272Z,36.27
2023-05-09T05:51:12.271Z,36.32
2023-05-09T05:52:12.147Z,36.32
2023-05-09T05:53:12.291Z,36.29
2023-05-09T05:54:12.163Z,36.23
2023-05-09T05:55:12.287Z,36.28
2023-05-09T05:56:12.171Z,36.22
2023-05-09T05:57:12.212Z,36.25
2023-05-09T05:58:12.290Z,36.27
2023-05-09T05:59:13.572Z,36.23
2023-05-09T06:00:13.300Z,36.23
2023-05-09T06:01:12.219Z,36.27
2023-05-09T06:02:12.321Z,36.22
2023-05-09T06:03:12.406Z,36.23
2023-05-09T06:04:12.329Z,36.23
2023-05-09T06:05:12.422Z,36.27
2023-05-09T06:06:12.331Z,36.24
2023-05-09T06:07:12.469Z,36.22
2023-05-09T06:08:12.776Z,36.18
2023-05-09T06:09:12.360Z,36.21
2023-05-09T06:10:12.354Z,36.21
2023-05-09T06:11:12.365Z,36.16
2023-05-09T06:12:12.373Z,36.17
2023-05-09T06:13:12.916Z,36.16
2023-05-09T06:14:12.433Z,36.17
2023-05-09T06:15:12.719Z,36.18
2023-05-09T06:16:19.460Z,36.16
2023-05-09T06:17:13.538Z,36.18
2023-05-09T06:18:12.449Z,36.19
2023-05-09T06:19:12.432Z,36.20
2023-05-09T06:20:12.403Z,36.21
2023-05-09T06:21:12.418Z,36.23
2023-05-09T06:22:12.406Z,36.16
2023-05-09T06:23:12.477Z,36.24
2023-05-09T06:24:23.495Z,36.17
2023-05-09T06:25:13.509Z,36.19
2023-05-09T06:26:12.356Z,36.15
2023-05-09T06:27:12.363Z,36.23
2023-05-09T06:28:12.369Z,36.16
2023-05-09T06:29:12.318Z,36.22
2023-05-09T06:30:24.508Z,36.19
2023-05-09T06:31:13.400Z,36.20
2023-05-09T06:32:12.327Z,36.23
2023-05-09T06:33:12.321Z,36.19
2023-05-09T06:34:12.307Z,36.17
2023-05-09T06:35:12.374Z,36.18
2023-05-09T06:36:12.322Z,36.18
2023-05-09T06:37:12.322Z,36.12
2023-05-09T06:38:12.293Z,36.13
2023-05-09T06:39:12.373Z,36.09
2023-05-09T06:40:12.265Z,36.09
2023-05-09T06:41:12.250Z,36.12
2023-05-09T06:42:12.263Z,36.12
2023-05-09T06:43:12.303Z,36.11
2023-05-09T06:44:12.227Z,36.14
2023-05-09T06:45:12.456Z,36.10
2023-05-09T06:46:12.226Z,36.10
2023-05-09T06:47:12.224Z,36.06
2023-05-09T06:48:12.243Z,36.08
2023-05-09T06:49:12.208Z,36.12
2023-05-09T06:50:12.232Z,36.10
2023-05-09T06:51:12.225Z,36.08
2023-05-09T06:52:12.259Z,36.11
2023-05-09T06:53:12.189Z,36.11
2023-05-09T06:54:12.167Z,36.10
2023-05-09T06:55:12.376Z,36.10
2023-05-09T06:56:12.182Z,36.05
2023-05-09T06:57:12.156Z,36.07
2023-05-09T06:58:13.148Z,36.12
2023-05-09T06:59:12.122Z,36.10
2023-05-09T07:00:12.140Z,36.12
2023-05-09T07:01:12.151Z,36.11
2023-05-09T07:02:12.127Z,36.10
2023-05-09T07:03:12.131Z,36.09
2023-05-09T07:04:12.114Z,36.08
2023-05-09T07:05:12.219Z,36.08
2023-05-09T07:06:12.086Z,36.04
2023-05-09T07:07:12.086Z,36.09
2023-05-09T07:08:12.078Z,36.05
2023-05-09T07:09:12.066Z,36.06
2023-05-09T07:10:12.533Z,36.05
2023-05-09T07:11:12.133Z,36.06
2023-05-09T07:12:12.053Z,36.09
2023-05-09T07:13:12.087Z,36.03
2023-05-09T07:14:12.077Z,36.04
2023-05-09T07:15:12.189Z,36.01
2023-05-09T07:16:12.043Z,36.04
2023-05-09T07:17:22.914Z,36.05
2023-05-09T07:18:13.054Z,36.01
2023-05-09T07:19:12.009Z,36.03
2023-05-09T07:20:12.015Z,36.04
2023-05-09T07:21:11.987Z,36.00
2023-05-09T07:22:12.015Z,36.02
2023-05-09T07:23:11.967Z,36.05
2023-05-09T07:24:12.008Z,36.03
2023-05-09T07:25:11.951Z,36.00
2023-05-09T07:26:11.972Z,35.99
2023-05-09T07:27:12.026Z,36.00
2023-05-09T07:28:12.330Z,35.99
2023-05-09T07:29:11.914Z,35.98
2023-05-09T07:30:11.993Z,35.98
2023-05-09T07:31:11.962Z,35.98
2023-05-09T07:32:12.049Z,35.99
2023-05-09T07:33:11.942Z,35.97
2023-05-09T07:34:11.904Z,35.97
2023-05-09T07:35:11.947Z,35.95
2023-05-09T07:36:11.888Z,35.93
2023-05-09T07:37:13.669Z,35.97
2023-05-09T07:38:11.882Z,35.95
2023-05-09T07:39:11.881Z,35.94
2023-05-09T07:40:11.957Z,35.93
2023-05-09T07:41:11.878Z,35.95
2023-05-09T07:42:11.865Z,35.93
2023-05-09T07:43:11.942Z,35.87
2023-05-09T07:44:12.335Z,35.85
2023-05-09T07:45:11.972Z,35.85
2023-05-09T07:46:11.971Z,35.84
2023-05-09T07:47:11.826Z,35.86
2023-05-09T07:48:11.862Z,35.98
2023-05-09T07:49:11.831Z,36.34
2023-05-09T07:50:11.813Z,36.33
2023-05-09T07:51:11.784Z,36.84
2023-05-09T07:52:11.794Z,36.98
2023-05-09T07:53:11.785Z,37.48
2023-05-09T07:54:11.781Z,37.57
2023-05-09T07:55:11.773Z,37.65
2023-05-09T07:56:11.748Z,37.82
2023-05-09T07:57:11.722Z,37.82
2023-05-09T07:58:11.726Z,37.89
2023-05-09T07:59:11.821Z,37.99
2023-05-09T08:00:11.695Z,38.04
2023-05-09T08:01:11.711Z,38.11
2023-05-09T08:02:11.744Z,38.16
2023-05-09T08:03:11.844Z,38.19
2023-05-09T08:04:11.881Z,38.30
2023-05-09T08:05:11.829Z,38.39
2023-05-09T08:06:11.676Z,38.41
2023-05-09T08:07:11.683Z,38.36
2023-05-09T08:08:11.695Z,38.35
2023-05-09T08:09:11.644Z,38.37
2023-05-09T08:10:11.661Z,38.38
2023-05-09T08:11:11.660Z,38.44
2023-05-09T08:12:11.632Z,38.40
2023-05-09T08:13:11.657Z,38.44
2023-05-09T08:14:12.785Z,38.45
2023-05-09T08:15:11.772Z,38.44
2023-05-09T08:16:11.688Z,38.44
2023-05-09T08:17:11.595Z,38.35
2023-05-09T08:18:11.607Z,38.30
2023-05-09T08:19:11.822Z,38.24
2023-05-09T08:20:11.580Z,38.17
2023-05-09T08:21:11.629Z,38.13
2023-05-09T08:22:11.663Z,38.01
2023-05-09T08:23:11.742Z,37.54
2023-05-09T08:24:11.796Z,36.13
2023-05-09T08:25:11.852Z,35.16
2023-05-09T08:26:11.854Z,35.37
2023-05-09T08:27:11.857Z,34.83
2023-05-09T08:28:11.899Z,33.90
2023-05-09T08:29:12.342Z,33.28
2023-05-09T08:30:11.944Z,32.66
2023-05-09T08:31:12.055Z,32.23
2023-05-09T08:32:12.017Z,31.95
2023-05-09T08:33:12.031Z,31.60
2023-05-09T08:34:12.027Z,31.32
2023-05-09T08:35:12.041Z,31.11
2023-05-09T08:36:12.059Z,30.84
2023-05-09T08:37:14.447Z,30.65
2023-05-09T08:38:12.107Z,30.49
2023-05-09T08:39:12.337Z,30.36
2023-05-09T08:40:12.175Z,30.38
2023-05-09T08:41:12.112Z,30.32
2023-05-09T08:42:12.127Z,30.19
2023-05-09T08:43:12.131Z,30.23
2023-05-09T08:44:12.339Z,30.20
2023-05-09T08:45:12.108Z,30.26
2023-05-09T08:46:12.153Z,30.63
2023-05-09T08:47:12.162Z,30.91
2023-05-09T08:48:12.039Z,31.45
2023-05-09T08:49:12.333Z,32.30
2023-05-09T08:50:12.322Z,32.72
2023-05-09T08:51:12.036Z,33.72
2023-05-09T08:52:12.038Z,34.70
2023-05-09T08:53:12.048Z,34.64
2023-05-09T08:54:12.344Z,35.00
2023-05-09T08:55:12.012Z,35.57
2023-05-09T08:56:12.024Z,35.81
2023-05-09T08:57:11.989Z,35.97
2023-05-09T08:58:12.036Z,36.35
2023-05-09T08:59:12.001Z,36.82
2023-05-09T09:00:12.028Z,36.93
2023-05-09T09:01:12.048Z,37.13
2023-05-09T09:02:12.017Z,36.85
2023-05-09T09:03:12.087Z,36.62
2023-05-09T09:04:11.946Z,36.80
2023-05-09T09:05:23.836Z,37.76
2023-05-09T09:06:12.964Z,37.99
2023-05-09T09:07:11.944Z,37.53
2023-05-09T09:08:11.973Z,37.60
2023-05-09T09:09:12.357Z,37.76
2023-05-09T09:10:11.946Z,38.24
2023-05-09T09:11:11.913Z,37.95
2023-05-09T09:12:11.924Z,38.75
2023-05-09T09:13:11.939Z,38.38
2023-05-09T09:14:11.886Z,38.94
2023-05-09T09:15:11.959Z,38.95
2023-05-09T09:16:12.036Z,38.16
2023-05-09T09:17:12.041Z,39.12
2023-05-09T09:18:12.135Z,38.89
2023-05-09T09:19:12.439Z,39.05
2023-05-09T09:20:12.321Z,39.23
2023-05-09T09:21:12.194Z,38.94
2023-05-09T09:22:12.177Z,39.02
2023-05-09T09:23:12.263Z,39.53
2023-05-09T09:24:12.338Z,39.46
2023-05-09T09:25:12.346Z,38.92
2023-05-09T09:26:12.396Z,39.35
2023-05-09T09:27:12.436Z,39.40
2023-05-09T09:28:12.486Z,38.91
2023-05-09T09:29:12.577Z,39.30
2023-05-09T09:30:12.642Z,38.82
2023-05-09T09:31:12.616Z,38.97
2023-05-09T09:32:12.809Z,38.46
2023-05-09T09:33:12.732Z,38.62
2023-05-09T09:34:12.698Z,38.16
2023-05-09T09:35:12.847Z,38.71
2023-05-09T09:36:12.761Z,38.84
2023-05-09T09:37:12.817Z,38.60
2023-05-09T09:38:12.819Z,38.82
2023-05-09T09:39:12.835Z,37.94
2023-05-09T09:40:13.005Z,37.60
2023-05-09T09:41:12.911Z,38.18
2023-05-09T09:42:12.957Z,38.57
2023-05-09T09:43:13.029Z,38.55
2023-05-09T09:44:13.412Z,38.64
2023-05-09T09:45:13.142Z,39.04
2023-05-09T09:46:13.223Z,37.37
2023-05-09T09:47:13.211Z,37.85
2023-05-09T09:48:13.312Z,38.53
2023-05-09T09:49:13.264Z,38.68
2023-05-09T09:50:13.447Z,38.85
2023-05-09T09:51:13.244Z,39.14
2023-05-09T09:52:13.316Z,39.46
2023-05-09T09:53:13.334Z,39.32
2023-05-09T09:54:13.349Z,39.24
2023-05-09T09:55:13.373Z,39.43
2023-05-09T09:56:13.476Z,39.14
2023-05-09T09:57:13.486Z,38.98
2023-05-09T09:58:13.591Z,39.18
2023-05-09T09:59:13.668Z,39.04
2023-05-09T10:00:13.717Z,39.00
2023-05-09T10:01:13.896Z,38.98
2023-05-09T10:02:13.752Z,38.85
2023-05-09T10:03:13.922Z,39.24
2023-05-09T10:04:13.879Z,39.04
2023-05-09T10:05:13.910Z,38.91
2023-05-09T10:06:14.061Z,38.87
2023-05-09T10:07:15.025Z,39.51
2023-05-09T10:08:14.061Z,39.08
2023-05-09T10:09:14.397Z,39.36
2023-05-09T10:10:14.264Z,38.57
2023-05-09T10:11:14.175Z,38.69
2023-05-09T10:12:14.208Z,39.38
2023-05-09T10:13:14.273Z,39.05
2023-05-09T10:14:14.380Z,38.77
2023-05-09T10:15:14.400Z,38.80
2023-05-09T10:16:14.541Z,39.32
2023-05-09T10:17:14.491Z,38.88
2023-05-09T10:18:14.517Z,39.34
2023-05-09T10:19:14.916Z,39.32
2023-05-09T10:20:14.652Z,39.01
2023-05-09T10:21:14.560Z,39.26
2023-05-09T10:22:14.566Z,39.39
2023-05-09T10:23:14.644Z,39.38
2023-05-09T10:24:14.871Z,39.63
2023-05-09T10:25:14.899Z,39.56
2023-05-09T10:26:14.651Z,39.34
2023-05-09T10:27:14.708Z,39.41
2023-05-09T10:28:14.718Z,39.71
2023-05-09T10:29:14.785Z,39.62
2023-05-09T10:30:14.798Z,39.25
2023-05-09T10:31:14.832Z,39.17
2023-05-09T10:32:14.871Z,39.30
2023-05-09T10:33:14.827Z,39.79
2023-05-09T10:34:14.870Z,39.91
2023-05-09T10:35:14.977Z,39.64
2023-05-09T10:36:14.927Z,39.26
2023-05-09T10:37:14.963Z,39.60
2023-05-09T10:38:14.966Z,39.57
2023-05-09T10:39:15.074Z,37.95
2023-05-09T10:40:15.024Z,38.55
2023-05-09T10:41:15.036Z,38.80
2023-05-09T10:42:15.081Z,39.27
2023-05-09T10:43:15.085Z,39.50
2023-05-09T10:44:15.397Z,38.95
2023-05-09T10:45:15.391Z,39.98
2023-05-09T10:46:15.320Z,40.35
2023-05-09T10:47:15.230Z,40.47
2023-05-09T10:48:15.260Z,39.70
2023-05-09T10:49:15.282Z,39.25
2023-05-09T10:50:15.302Z,38.73
2023-05-09T10:51:15.376Z,38.19
2023-05-09T10:52:15.374Z,39.23
2023-05-09T10:53:15.433Z,39.18
2023-05-09T10:54:15.485Z,39.51
2023-05-09T10:55:15.770Z,39.24
2023-05-09T10:56:15.509Z,37.22
2023-05-09T10:57:15.541Z,39.11
2023-05-09T10:58:15.564Z,35.28
2023-05-09T10:59:15.603Z,38.12
2023-05-09T11:00:15.591Z,39.08
2023-05-09T11:01:15.641Z,36.18
2023-05-09T11:02:15.616Z,38.50
2023-05-09T11:03:15.816Z,39.01
2023-05-09T11:04:15.872Z,39.15
2023-05-09T11:05:15.907Z,39.68
2023-05-09T11:06:15.683Z,38.97
2023-05-09T11:07:15.696Z,39.30
2023-05-09T11:08:15.696Z,39.63
2023-05-09T11:09:15.699Z,37.50
2023-05-09T11:10:15.814Z,38.19
2023-05-09T11:11:15.785Z,39.94
2023-05-09T11:12:15.699Z,39.90
2023-05-09T11:13:15.701Z,40.40
2023-05-09T11:14:15.708Z,39.88
2023-05-09T11:15:16.048Z,39.82
2023-05-09T11:16:15.809Z,40.18
2023-05-09T11:17:15.813Z,40.39
2023-05-09T11:18:16.588Z,39.68
2023-05-09T11:19:15.915Z,38.32
2023-05-09T11:20:16.439Z,39.63
2023-05-09T11:21:15.962Z,39.69
2023-05-09T11:22:16.016Z,39.75
2023-05-09T11:23:16.049Z,39.76
2023-05-09T11:24:17.010Z,39.84
2023-05-09T11:25:16.549Z,39.79
2023-05-09T11:26:15.997Z,39.81
2023-05-09T11:27:16.082Z,39.88
2023-05-09T11:28:15.991Z,39.43
2023-05-09T11:29:15.985Z,39.81
2023-05-09T11:30:16.048Z,39.34
2023-05-09T11:31:16.103Z,38.59
2023-05-09T11:32:16.087Z,38.75
2023-05-09T11:33:15.980Z,39.49
2023-05-09T11:34:15.950Z,39.47
2023-05-09T11:35:16.758Z,39.20
2023-05-09T11:36:16.096Z,39.31
2023-05-09T11:37:16.136Z,37.99
2023-05-09T11:38:16.099Z,37.85
2023-05-09T11:39:16.054Z,37.90
2023-05-09T11:40:16.151Z,38.99
2023-05-09T11:41:16.144Z,38.57
2023-05-09T11:42:16.064Z,36.95
2023-05-09T11:43:16.176Z,36.02
2023-05-09T11:44:16.078Z,37.51
2023-05-09T11:45:16.741Z,37.34
2023-05-09T11:46:16.120Z,37.09
2023-05-09T11:47:16.104Z,36.88
2023-05-09T11:48:16.155Z,37.28
2023-05-09T11:49:16.169Z,37.14
2023-05-09T11:50:16.288Z,37.57
2023-05-09T11:51:16.200Z,37.23
2023-05-09T11:52:16.299Z,36.90
2023-05-09T11:53:16.275Z,36.64
2023-05-09T11:54:16.324Z,36.82
2023-05-09T11:55:16.602Z,36.40
2023-05-09T11:56:16.412Z,36.80
2023-05-09T11:57:16.466Z,36.97
2023-05-09T11:58:16.505Z,37.21
2023-05-09T11:59:16.616Z,37.05
2023-05-09T12:00:16.891Z,37.21
2023-05-09T12:01:16.661Z,36.92
2023-05-09T12:02:16.836Z,36.67
2023-05-09T12:03:16.920Z,36.56
2023-05-09T12:04:16.830Z,36.27
2023-05-09T12:05:17.076Z,36.02
2023-05-09T12:06:16.907Z,36.06
2023-05-09T12:07:16.931Z,36.27
2023-05-09T12:08:17.011Z,36.27
2023-05-09T12:09:17.055Z,35.85
2023-05-09T12:10:17.444Z,35.89
2023-05-09T12:11:17.176Z,36.13
2023-05-09T12:12:17.206Z,35.77
2023-05-09T12:13:17.351Z,35.81
2023-05-09T12:14:17.323Z,35.57
2023-05-09T12:15:18.007Z,35.11
2023-05-09T12:16:17.493Z,35.47
2023-05-09T12:17:17.477Z,35.83
2023-05-09T12:18:17.523Z,36.05
2023-05-09T12:19:17.539Z,36.18
2023-05-09T12:20:17.958Z,36.27
2023-05-09T12:21:17.576Z,36.09
2023-05-09T12:22:17.600Z,35.19
2023-05-09T12:23:17.599Z,35.36
2023-05-09T12:24:17.613Z,35.45
2023-05-09T12:25:18.057Z,35.73
2023-05-09T12:26:17.628Z,34.88
2023-05-09T12:27:17.621Z,34.45
2023-05-09T12:28:17.614Z,34.78
2023-05-09T12:29:17.604Z,34.88
2023-05-09T12:30:17.631Z,35.34
2023-05-09T12:31:17.790Z,35.16
2023-05-09T12:32:17.591Z,34.60
2023-05-09T12:33:17.603Z,34.99
2023-05-09T12:34:17.599Z,34.36
2023-05-09T12:35:17.742Z,34.27
2023-05-09T12:36:17.626Z,34.64
2023-05-09T12:37:17.599Z,34.50
2023-05-09T12:38:17.629Z,34.51
2023-05-09T12:39:18.417Z,34.38
2023-05-09T12:40:17.652Z,34.22
2023-05-09T12:41:34.880Z,34.21
2023-05-09T12:42:18.636Z,34.37
2023-05-09T12:43:17.634Z,33.72
2023-05-09T12:44:17.686Z,33.62
2023-05-09T12:45:17.839Z,33.82
2023-05-09T12:46:17.661Z,33.76
2023-05-09T12:47:17.847Z,33.47
2023-05-09T12:48:17.625Z,33.62
2023-05-09T12:49:17.612Z,33.94
2023-05-09T12:50:17.581Z,33.96
2023-05-09T12:51:17.576Z,33.74
2023-05-09T12:52:17.577Z,33.40